createdAt,value
2023-03-22T00:00:20.455Z,763.00
2023-03-22T00:00:50.466Z,764.00
2023-03-22T00:01:20.471Z,762.00
2023-03-22T00:01:50.481Z,760.00
2023-03-22T00:02:20.591Z,767.00
2023-03-22T00:02:50.569Z,768.00
2023-03-22T00:03:20.579Z,766.00
2023-03-22T00:03:50.713Z,767.00
2023-03-22T00:04:20.669Z,765.00
2023-03-22T00:04:50.685Z,764.00
2023-03-22T00:05:20.690Z,763.00
2023-03-22T00:05:50.692Z,765.00
2023-03-22T00:06:20.723Z,767.00
2023-03-22T00:06:50.705Z,764.00
2023-03-22T00:07:20.719Z,768.00
2023-03-22T00:07:50.753Z,769.00
2023-03-22T00:08:20.728Z,768.00
2023-03-22T00:08:50.770Z,766.00
2023-03-22T00:09:20.782Z,763.00
2023-03-22T00:09:50.781Z,761.00
2023-03-22T00:10:20.804Z,761.00
2023-03-22T00:10:50.806Z,763.00
2023-03-22T00:11:20.818Z,763.00
2023-03-22T00:11:50.830Z,761.00
2023-03-22T00:12:20.816Z,761.00
2023-03-22T00:12:50.839Z,763.00
2023-03-22T00:13:20.843Z,762.00
2023-03-22T00:13:50.843Z,763.00
2023-03-22T00:14:20.847Z,764.00
2023-03-22T00:14:50.857Z,763.00
2023-03-22T00:15:20.874Z,763.00
2023-03-22T00:15:50.906Z,765.00
2023-03-22T00:16:20.962Z,764.00
2023-03-22T00:16:50.948Z,764.00
2023-03-22T00:17:20.948Z,763.00
2023-03-22T00:17:50.960Z,763.00
2023-03-22T00:18:20.966Z,761.00
2023-03-22T00:18:50.976Z,763.00
2023-03-22T00:19:20.994Z,764.00
2023-03-22T00:19:50.983Z,763.00
2023-03-22T00:20:21.050Z,763.00
2023-03-22T00:20:51.030Z,763.00
2023-03-22T00:21:21.033Z,762.00
2023-03-22T00:21:51.034Z,764.00
2023-03-22T00:22:21.040Z,763.00
2023-03-22T00:22:51.045Z,762.00
2023-03-22T00:23:21.068Z,763.00
2023-03-22T00:23:51.049Z,764.00
2023-03-22T00:24:21.132Z,766.00
2023-03-22T00:24:51.112Z,764.00
2023-03-22T00:25:21.122Z,765.00
2023-03-22T00:25:51.138Z,763.00
2023-03-22T00:26:21.183Z,759.00
2023-03-22T00:26:51.167Z,759.00
2023-03-22T00:27:21.175Z,758.00
2023-03-22T00:27:51.181Z,760.00
2023-03-22T00:28:21.183Z,758.00
2023-03-22T00:28:51.189Z,758.00
2023-03-22T00:29:21.202Z,756.00
2023-03-22T00:29:51.214Z,757.00
2023-03-22T00:30:21.207Z,756.00
2023-03-22T00:30:51.220Z,756.00
2023-03-22T00:31:21.295Z,755.00
2023-03-22T00:31:51.320Z,752.00
2023-03-22T00:32:21.340Z,748.00
2023-03-22T00:32:51.357Z,748.00
2023-03-22T00:33:21.449Z,747.00
2023-03-22T00:33:51.544Z,747.00
2023-03-22T00:34:21.623Z,748.00
2023-03-22T00:34:51.716Z,746.00
2023-03-22T00:35:21.858Z,750.00
2023-03-22T00:35:51.858Z,752.00
2023-03-22T00:36:21.843Z,751.00
2023-03-22T00:36:52.045Z,755.00
2023-03-22T00:37:21.972Z,755.00
2023-03-22T00:37:52.056Z,755.00
2023-03-22T00:38:32.529Z,758.00
2023-03-22T00:38:52.244Z,756.00
2023-03-22T00:39:22.312Z,753.00
2023-03-22T00:39:52.400Z,753.00
2023-03-22T00:40:22.503Z,753.00
2023-03-22T00:40:52.591Z,752.00
2023-03-22T00:41:22.686Z,754.00
2023-03-22T00:41:52.769Z,754.00
2023-03-22T00:42:22.846Z,755.00
2023-03-22T00:42:52.940Z,753.00
2023-03-22T00:43:23.034Z,754.00
2023-03-22T00:43:53.073Z,749.00
2023-03-22T00:44:23.076Z,749.00
2023-03-22T00:44:53.088Z,751.00
2023-03-22T00:45:23.123Z,749.00
2023-03-22T00:45:53.216Z,752.00
2023-03-22T00:46:23.254Z,752.00
2023-03-22T00:46:53.311Z,751.00
2023-03-22T00:47:23.305Z,749.00
2023-03-22T00:47:53.349Z,748.00
2023-03-22T00:48:23.408Z,752.00
2023-03-22T00:48:53.400Z,752.00
2023-03-22T00:49:23.382Z,749.00
2023-03-22T00:49:53.385Z,745.00
2023-03-22T00:50:23.392Z,747.00
2023-03-22T00:50:53.398Z,747.00
2023-03-22T00:51:23.415Z,749.00
2023-03-22T00:51:53.431Z,743.00
2023-03-22T00:52:23.423Z,742.00
2023-03-22T00:52:53.427Z,744.00
2023-03-22T00:53:23.431Z,744.00
2023-03-22T00:53:53.449Z,745.00
2023-03-22T00:54:23.496Z,745.00
2023-03-22T00:54:53.475Z,749.00
2023-03-22T00:55:23.479Z,747.00
2023-03-22T00:55:53.518Z,745.00
2023-03-22T00:56:23.513Z,741.00
2023-03-22T00:56:53.506Z,745.00
2023-03-22T00:57:23.523Z,745.00
2023-03-22T00:57:53.524Z,746.00
2023-03-22T00:58:23.535Z,744.00
2023-03-22T00:58:53.536Z,745.00
2023-03-22T00:59:23.543Z,745.00
2023-03-22T00:59:53.569Z,748.00
2023-03-22T01:00:23.560Z,747.00
2023-03-22T01:00:53.613Z,748.00
2023-03-22T01:01:23.697Z,747.00
2023-03-22T01:01:53.688Z,746.00
2023-03-22T01:02:23.693Z,742.00
2023-03-22T01:02:53.710Z,744.00
2023-03-22T01:03:23.781Z,747.00
2023-03-22T01:03:53.786Z,746.00
2023-03-22T01:04:23.779Z,744.00
2023-03-22T01:04:53.780Z,746.00
2023-03-22T01:05:23.790Z,746.00
2023-03-22T01:05:53.793Z,747.00
2023-03-22T01:06:23.792Z,747.00
2023-03-22T01:06:53.809Z,745.00
2023-03-22T01:07:23.828Z,744.00
2023-03-22T01:07:53.836Z,742.00
2023-03-22T01:08:23.828Z,740.00
2023-03-22T01:08:53.832Z,741.00
2023-03-22T01:09:23.884Z,740.00
2023-03-22T01:09:53.913Z,739.00
2023-03-22T01:10:23.895Z,739.00
2023-03-22T01:10:53.913Z,741.00
2023-03-22T01:11:23.917Z,743.00
2023-03-22T01:11:53.927Z,743.00
2023-03-22T01:12:23.926Z,740.00
2023-03-22T01:12:53.931Z,741.00
2023-03-22T01:13:23.933Z,738.00
2023-03-22T01:13:53.933Z,738.00
2023-03-22T01:14:23.932Z,739.00
2023-03-22T01:14:53.942Z,737.00
2023-03-22T01:15:23.948Z,736.00
2023-03-22T01:15:53.960Z,734.00
2023-03-22T01:16:24.009Z,735.00
2023-03-22T01:16:54.055Z,733.00
2023-03-22T01:17:24.054Z,732.00
2023-03-22T01:17:54.071Z,733.00
2023-03-22T01:18:24.057Z,733.00
2023-03-22T01:18:54.059Z,737.00
2023-03-22T01:19:24.059Z,734.00
2023-03-22T01:19:54.065Z,733.00
2023-03-22T01:20:24.081Z,732.00
2023-03-22T01:20:54.089Z,732.00
2023-03-22T01:21:24.087Z,731.00
2023-03-22T01:21:54.090Z,733.00
2023-03-22T01:22:24.089Z,732.00
2023-03-22T01:22:54.091Z,730.00
2023-03-22T01:23:24.096Z,731.00
2023-03-22T01:23:54.138Z,732.00
2023-03-22T01:24:24.113Z,732.00
2023-03-22T01:24:54.123Z,732.00
2023-03-22T01:25:24.147Z,734.00
2023-03-22T01:25:54.144Z,733.00
2023-03-22T01:26:24.182Z,732.00
2023-03-22T01:26:54.183Z,732.00
2023-03-22T01:27:24.189Z,732.00
2023-03-22T01:27:54.186Z,733.00
2023-03-22T01:28:26.895Z,734.00
2023-03-22T01:28:54.249Z,735.00
2023-03-22T01:29:24.248Z,735.00
2023-03-22T01:29:54.263Z,732.00
2023-03-22T01:30:24.265Z,734.00
2023-03-22T01:30:54.324Z,734.00
2023-03-22T01:31:24.334Z,732.00
2023-03-22T01:31:54.321Z,732.00
2023-03-22T01:32:24.327Z,731.00
2023-03-22T01:32:54.337Z,730.00
2023-03-22T01:33:24.442Z,731.00
2023-03-22T01:33:54.529Z,732.00
2023-03-22T01:34:24.614Z,733.00
2023-03-22T01:34:54.696Z,731.00
2023-03-22T01:35:24.856Z,730.00
2023-03-22T01:35:54.858Z,733.00
2023-03-22T01:36:24.921Z,735.00
2023-03-22T01:36:55.017Z,733.00
2023-03-22T01:37:25.091Z,730.00
2023-03-22T01:37:55.187Z,727.00
2023-03-22T01:38:25.263Z,725.00
2023-03-22T01:38:55.351Z,722.00
2023-03-22T01:39:25.437Z,721.00
2023-03-22T01:39:55.521Z,720.00
2023-03-22T01:40:25.604Z,721.00
2023-03-22T01:40:55.729Z,722.00
2023-03-22T01:41:25.784Z,724.00
2023-03-22T01:41:55.868Z,724.00
2023-03-22T01:42:25.947Z,722.00
2023-03-22T01:42:56.044Z,725.00
2023-03-22T01:43:26.144Z,726.00
2023-03-22T01:43:56.158Z,728.00
2023-03-22T01:44:26.159Z,729.00
2023-03-22T01:44:57.814Z,728.00
2023-03-22T01:45:26.268Z,726.00
2023-03-22T01:45:56.307Z,731.00
2023-03-22T01:46:26.310Z,731.00
2023-03-22T01:46:56.347Z,727.00
2023-03-22T01:47:26.356Z,725.00
2023-03-22T01:47:56.394Z,722.00
2023-03-22T01:48:26.406Z,723.00
2023-03-22T01:48:56.428Z,722.00
2023-03-22T01:49:26.421Z,722.00
2023-03-22T01:49:56.428Z,719.00
2023-03-22T01:50:26.439Z,721.00
2023-03-22T01:50:56.458Z,722.00
2023-03-22T01:51:26.461Z,719.00
2023-03-22T01:51:56.467Z,719.00
2023-03-22T01:52:26.477Z,721.00
2023-03-22T01:52:56.487Z,716.00
2023-03-22T01:53:26.502Z,718.00
2023-03-22T01:53:56.508Z,717.00
2023-03-22T01:54:26.511Z,715.00
2023-03-22T01:54:56.525Z,718.00
2023-03-22T01:55:26.530Z,718.00
2023-03-22T01:55:56.551Z,718.00
2023-03-22T01:56:26.579Z,718.00
2023-03-22T01:56:56.555Z,718.00
2023-03-22T01:57:26.565Z,722.00
2023-03-22T01:57:56.569Z,721.00
2023-03-22T01:58:26.569Z,720.00
2023-03-22T01:58:56.581Z,719.00
2023-03-22T01:59:26.587Z,722.00
2023-03-22T01:59:56.586Z,723.00
2023-03-22T02:00:26.594Z,722.00
2023-03-22T02:00:56.616Z,716.00
2023-03-22T02:01:26.653Z,720.00
2023-03-22T02:01:56.636Z,719.00
2023-03-22T02:02:26.716Z,723.00
2023-03-22T02:02:56.813Z,723.00
2023-03-22T02:03:26.818Z,722.00
2023-03-22T02:03:56.834Z,721.00
2023-03-22T02:04:26.827Z,719.00
2023-03-22T02:04:56.839Z,715.00
2023-03-22T02:05:26.838Z,714.00
2023-03-22T02:05:56.843Z,712.00
2023-03-22T02:06:26.874Z,714.00
2023-03-22T02:06:56.874Z,714.00
2023-03-22T02:07:26.868Z,716.00
2023-03-22T02:07:56.874Z,715.00
2023-03-22T02:08:26.882Z,717.00
2023-03-22T02:08:56.890Z,718.00
2023-03-22T02:09:26.890Z,716.00
2023-03-22T02:09:56.932Z,714.00
2023-03-22T02:10:26.930Z,713.00
2023-03-22T02:10:56.947Z,713.00
2023-03-22T02:11:26.961Z,713.00
2023-03-22T02:11:56.993Z,713.00
2023-03-22T02:12:26.968Z,711.00
2023-03-22T02:12:56.980Z,712.00
2023-03-22T02:13:26.977Z,712.00
2023-03-22T02:13:56.983Z,711.00
2023-03-22T02:14:27.491Z,710.00
2023-03-22T02:14:57.035Z,710.00
2023-03-22T02:15:27.051Z,711.00
2023-03-22T02:15:57.090Z,710.00
2023-03-22T02:16:27.101Z,708.00
2023-03-22T02:16:57.115Z,707.00
2023-03-22T02:17:27.120Z,709.00
2023-03-22T02:17:57.125Z,709.00
2023-03-22T02:18:27.132Z,708.00
2023-03-22T02:18:57.153Z,709.00
2023-03-22T02:19:27.146Z,705.00
2023-03-22T02:19:57.169Z,703.00
2023-03-22T02:20:27.170Z,705.00
2023-03-22T02:20:57.166Z,706.00
2023-03-22T02:21:27.214Z,707.00
2023-03-22T02:21:57.210Z,710.00
2023-03-22T02:22:27.225Z,710.00
2023-03-22T02:22:57.227Z,710.00
2023-03-22T02:23:27.227Z,709.00
2023-03-22T02:23:57.248Z,711.00
2023-03-22T02:24:27.240Z,710.00
2023-03-22T02:24:57.254Z,707.00
2023-03-22T02:25:27.260Z,707.00
2023-03-22T02:25:57.270Z,708.00
2023-03-22T02:26:27.272Z,709.00
2023-03-22T02:26:57.273Z,708.00
2023-03-22T02:27:27.312Z,707.00
2023-03-22T02:27:57.282Z,706.00
2023-03-22T02:28:27.286Z,706.00
2023-03-22T02:28:57.287Z,707.00
2023-03-22T02:29:27.291Z,707.00
2023-03-22T02:29:57.305Z,706.00
2023-03-22T02:30:27.310Z,705.00
2023-03-22T02:30:57.322Z,705.00
2023-03-22T02:31:27.351Z,704.00
2023-03-22T02:31:57.324Z,709.00
2023-03-22T02:32:27.338Z,708.00
2023-03-22T02:32:57.341Z,709.00
2023-03-22T02:33:27.446Z,708.00
2023-03-22T02:33:57.523Z,704.00
2023-03-22T02:34:27.626Z,702.00
2023-03-22T02:34:57.696Z,703.00
2023-03-22T02:35:27.818Z,702.00
2023-03-22T02:35:57.909Z,703.00
2023-03-22T02:36:27.975Z,706.00
2023-03-22T02:36:58.077Z,706.00
2023-03-22T02:37:28.144Z,705.00
2023-03-22T02:37:58.223Z,707.00
2023-03-22T02:38:28.297Z,704.00
2023-03-22T02:38:58.380Z,705.00
2023-03-22T02:39:28.471Z,704.00
2023-03-22T02:39:58.545Z,703.00
2023-03-22T02:40:28.629Z,702.00
2023-03-22T02:40:58.723Z,701.00
2023-03-22T02:41:28.810Z,701.00
2023-03-22T02:41:58.889Z,702.00
2023-03-22T02:42:28.965Z,701.00
2023-03-22T02:42:59.105Z,702.00
2023-03-22T02:43:29.087Z,703.00
2023-03-22T02:43:59.093Z,702.00
2023-03-22T02:44:29.108Z,700.00
2023-03-22T02:44:59.098Z,698.00
2023-03-22T02:45:29.153Z,698.00
2023-03-22T02:45:59.130Z,701.00
2023-03-22T02:46:29.187Z,697.00
2023-03-22T02:46:59.251Z,696.00
2023-03-22T02:47:29.276Z,695.00
2023-03-22T02:47:59.309Z,696.00
2023-03-22T02:48:29.297Z,699.00
2023-03-22T02:48:59.309Z,698.00
2023-03-22T02:49:29.311Z,696.00
2023-03-22T02:49:59.317Z,693.00
2023-03-22T02:50:29.319Z,695.00
2023-03-22T02:50:59.337Z,693.00
2023-03-22T02:51:29.345Z,695.00
2023-03-22T02:51:59.357Z,695.00
2023-03-22T02:52:29.365Z,694.00
2023-03-22T02:52:59.370Z,694.00
2023-03-22T02:53:29.508Z,695.00
2023-03-22T02:53:59.393Z,694.00
2023-03-22T02:54:29.405Z,697.00
2023-03-22T02:54:59.410Z,697.00
2023-03-22T02:55:29.411Z,697.00
2023-03-22T02:55:59.419Z,697.00
2023-03-22T02:56:29.440Z,696.00
2023-03-22T02:56:59.442Z,696.00
2023-03-22T02:57:29.447Z,695.00
2023-03-22T02:57:59.452Z,695.00
2023-03-22T02:58:29.487Z,695.00
2023-03-22T02:58:59.496Z,696.00
2023-03-22T02:59:29.487Z,694.00
2023-03-22T02:59:59.500Z,695.00
2023-03-22T03:00:29.546Z,696.00
2023-03-22T03:00:59.616Z,693.00
2023-03-22T03:01:29.627Z,694.00
2023-03-22T03:01:59.663Z,692.00
2023-03-22T03:02:29.684Z,691.00
2023-03-22T03:02:59.695Z,691.00
2023-03-22T03:03:29.697Z,693.00
2023-03-22T03:03:59.710Z,693.00
2023-03-22T03:04:29.719Z,696.00
2023-03-22T03:04:59.720Z,697.00
2023-03-22T03:05:29.740Z,701.00
2023-03-22T03:05:59.745Z,700.00
2023-03-22T03:06:29.766Z,692.00
2023-03-22T03:06:59.770Z,690.00
2023-03-22T03:07:29.772Z,691.00
2023-03-22T03:07:59.773Z,692.00
2023-03-22T03:08:29.775Z,690.00
2023-03-22T03:08:59.800Z,686.00
2023-03-22T03:09:29.787Z,685.00
2023-03-22T03:09:59.806Z,684.00
2023-03-22T03:10:29.801Z,686.00
2023-03-22T03:10:59.811Z,686.00
2023-03-22T03:11:31.556Z,686.00
2023-03-22T03:11:59.816Z,688.00
2023-03-22T03:12:29.892Z,690.00
2023-03-22T03:12:59.908Z,690.00
2023-03-22T03:13:29.900Z,689.00
2023-03-22T03:13:59.924Z,687.00
2023-03-22T03:14:29.960Z,686.00
2023-03-22T03:14:59.953Z,688.00
2023-03-22T03:15:29.964Z,691.00
2023-03-22T03:16:00.001Z,691.00
2023-03-22T03:16:30.030Z,692.00
2023-03-22T03:17:00.022Z,691.00
2023-03-22T03:17:30.037Z,692.00
2023-03-22T03:18:00.071Z,691.00
2023-03-22T03:18:30.051Z,688.00
2023-03-22T03:19:00.082Z,692.00
2023-03-22T03:19:30.069Z,690.00
2023-03-22T03:20:00.111Z,689.00
2023-03-22T03:20:30.237Z,690.00
2023-03-22T03:21:00.144Z,691.00
2023-03-22T03:21:30.199Z,693.00
2023-03-22T03:22:00.220Z,690.00
2023-03-22T03:22:30.216Z,692.00
2023-03-22T03:23:00.281Z,692.00
2023-03-22T03:23:30.273Z,692.00
2023-03-22T03:24:00.281Z,690.00
2023-03-22T03:24:30.281Z,688.00
2023-03-22T03:25:00.288Z,692.00
2023-03-22T03:25:30.294Z,692.00
2023-03-22T03:26:00.308Z,692.00
2023-03-22T03:26:30.372Z,692.00
2023-03-22T03:27:00.338Z,690.00
2023-03-22T03:27:30.344Z,689.00
2023-03-22T03:28:00.356Z,688.00
2023-03-22T03:28:30.436Z,690.00
2023-03-22T03:29:00.417Z,689.00
2023-03-22T03:29:30.444Z,689.00
2023-03-22T03:30:00.428Z,688.00
2023-03-22T03:30:30.439Z,689.00
2023-03-22T03:31:00.443Z,688.00
2023-03-22T03:31:30.495Z,687.00
2023-03-22T03:32:00.498Z,690.00
2023-03-22T03:32:30.519Z,689.00
2023-03-22T03:33:00.529Z,689.00
2023-03-22T03:33:30.623Z,691.00
2023-03-22T03:34:00.699Z,691.00
2023-03-22T03:34:30.778Z,691.00
2023-03-22T03:35:00.855Z,688.00
2023-03-22T03:35:31.018Z,687.00
2023-03-22T03:36:01.002Z,687.00
2023-03-22T03:36:30.975Z,686.00
2023-03-22T03:37:01.052Z,688.00
2023-03-22T03:37:31.140Z,688.00
2023-03-22T03:38:01.224Z,688.00
2023-03-22T03:38:31.303Z,688.00
2023-03-22T03:39:01.381Z,686.00
2023-03-22T03:39:31.463Z,684.00
2023-03-22T03:40:01.546Z,680.00
2023-03-22T03:40:31.643Z,683.00
2023-03-22T03:41:01.768Z,686.00
2023-03-22T03:41:31.735Z,686.00
2023-03-22T03:42:01.824Z,685.00
2023-03-22T03:42:31.911Z,686.00
2023-03-22T03:43:01.984Z,687.00
2023-03-22T03:43:32.093Z,687.00
2023-03-22T03:44:02.092Z,685.00
2023-03-22T03:44:32.110Z,682.00
2023-03-22T03:45:02.173Z,680.00
2023-03-22T03:45:32.231Z,679.00
2023-03-22T03:46:02.349Z,680.00
2023-03-22T03:46:32.356Z,683.00
2023-03-22T03:47:02.359Z,680.00
2023-03-22T03:47:32.397Z,682.00
2023-03-22T03:48:02.472Z,680.00
2023-03-22T03:48:32.461Z,681.00
2023-03-22T03:49:02.477Z,681.00
2023-03-22T03:49:32.484Z,681.00
2023-03-22T03:50:02.479Z,679.00
2023-03-22T03:50:32.486Z,678.00
2023-03-22T03:51:02.499Z,678.00
2023-03-22T03:51:32.501Z,676.00
2023-03-22T03:52:02.508Z,678.00
2023-03-22T03:52:32.516Z,680.00
2023-03-22T03:53:02.525Z,683.00
2023-03-22T03:53:32.523Z,682.00
2023-03-22T03:54:02.534Z,683.00
2023-03-22T03:54:32.534Z,686.00
2023-03-22T03:55:02.557Z,683.00
2023-03-22T03:55:32.539Z,684.00
2023-03-22T03:56:02.576Z,686.00
2023-03-22T03:56:32.581Z,686.00
2023-03-22T03:57:04.045Z,687.00
2023-03-22T03:57:32.670Z,686.00
2023-03-22T03:58:02.746Z,686.00
2023-03-22T03:58:32.758Z,686.00
2023-03-22T03:59:02.756Z,687.00
2023-03-22T03:59:32.757Z,685.00
2023-03-22T04:00:02.752Z,685.00
2023-03-22T04:00:32.808Z,685.00
2023-03-22T04:01:02.822Z,686.00
2023-03-22T04:01:32.824Z,685.00
2023-03-22T04:02:02.905Z,681.00
2023-03-22T04:02:32.993Z,678.00
2023-03-22T04:03:03.003Z,677.00
2023-03-22T04:03:33.010Z,678.00
2023-03-22T04:04:03.094Z,678.00
2023-03-22T04:04:33.184Z,678.00
2023-03-22T04:05:03.174Z,680.00
2023-03-22T04:05:33.174Z,680.00
2023-03-22T04:06:03.176Z,680.00
2023-03-22T04:06:33.186Z,679.00
2023-03-22T04:07:03.201Z,676.00
2023-03-22T04:07:33.197Z,676.00
2023-03-22T04:08:03.201Z,676.00
2023-03-22T04:08:33.203Z,676.00
2023-03-22T04:09:03.212Z,678.00
2023-03-22T04:09:33.232Z,678.00
2023-03-22T04:10:03.222Z,676.00
2023-03-22T04:10:33.228Z,676.00
2023-03-22T04:11:03.242Z,675.00
2023-03-22T04:11:33.256Z,675.00
2023-03-22T04:12:03.254Z,673.00
2023-03-22T04:12:33.263Z,672.00
2023-03-22T04:13:03.258Z,672.00
2023-03-22T04:13:33.267Z,670.00
2023-03-22T04:14:03.278Z,670.00
2023-03-22T04:14:33.279Z,670.00
2023-03-22T04:15:03.286Z,670.00
2023-03-22T04:15:33.372Z,671.00
2023-03-22T04:16:03.391Z,670.00
2023-03-22T04:16:33.412Z,668.00
2023-03-22T04:17:03.398Z,668.00
2023-03-22T04:17:33.410Z,667.00
2023-03-22T04:18:03.415Z,667.00
2023-03-22T04:18:33.412Z,665.00
2023-03-22T04:19:03.428Z,665.00
2023-03-22T04:19:33.429Z,666.00
2023-03-22T04:20:05.787Z,666.00
2023-03-22T04:20:33.474Z,666.00
2023-03-22T04:21:03.499Z,668.00
2023-03-22T04:21:33.473Z,667.00
2023-03-22T04:22:03.485Z,667.00
2023-03-22T04:22:33.486Z,667.00
2023-03-22T04:23:03.496Z,669.00
2023-03-22T04:23:33.506Z,669.00
2023-03-22T04:24:03.513Z,669.00
2023-03-22T04:24:33.507Z,670.00
2023-03-22T04:25:03.516Z,671.00
2023-03-22T04:25:33.530Z,671.00
2023-03-22T04:26:03.533Z,670.00
2023-03-22T04:26:33.544Z,668.00
2023-03-22T04:27:03.544Z,667.00
2023-03-22T04:27:33.543Z,669.00
2023-03-22T04:28:03.556Z,668.00
2023-03-22T04:28:33.558Z,668.00
2023-03-22T04:29:03.583Z,668.00
2023-03-22T04:29:33.588Z,667.00
2023-03-22T04:30:03.589Z,669.00
2023-03-22T04:30:33.592Z,669.00
2023-03-22T04:31:03.713Z,670.00
2023-03-22T04:31:33.738Z,668.00
2023-03-22T04:32:03.717Z,669.00
2023-03-22T04:32:33.708Z,671.00
2023-03-22T04:33:03.715Z,672.00
2023-03-22T04:33:33.809Z,674.00
2023-03-22T04:34:03.901Z,675.00
2023-03-22T04:34:33.989Z,673.00
2023-03-22T04:35:04.056Z,672.00
2023-03-22T04:35:34.177Z,672.00
2023-03-22T04:36:04.698Z,673.00
2023-03-22T04:36:34.313Z,674.00
2023-03-22T04:37:04.395Z,670.00
2023-03-22T04:37:34.476Z,665.00
2023-03-22T04:38:04.599Z,665.00
2023-03-22T04:38:34.664Z,663.00
2023-03-22T04:39:04.742Z,664.00
2023-03-22T04:39:34.823Z,664.00
2023-03-22T04:40:04.898Z,664.00
2023-03-22T04:40:34.990Z,666.00
2023-03-22T04:41:05.078Z,665.00
2023-03-22T04:41:35.172Z,683.00
2023-03-22T04:42:05.258Z,657.00
2023-03-22T04:42:35.342Z,659.00
2023-03-22T04:43:05.431Z,658.00
2023-03-22T04:43:35.432Z,660.00
2023-03-22T04:44:05.475Z,663.00
2023-03-22T04:44:35.464Z,665.00
2023-03-22T04:45:05.465Z,665.00
2023-03-22T04:45:35.480Z,665.00
2023-03-22T04:46:05.580Z,664.00
2023-03-22T04:46:35.627Z,662.00
2023-03-22T04:47:05.626Z,658.00
2023-03-22T04:47:35.643Z,661.00
2023-03-22T04:48:05.707Z,665.00
2023-03-22T04:48:35.734Z,664.00
2023-03-22T04:49:05.730Z,668.00
2023-03-22T04:49:35.769Z,671.00
2023-03-22T04:50:05.765Z,668.00
2023-03-22T04:50:35.771Z,668.00
2023-03-22T04:51:05.794Z,669.00
2023-03-22T04:51:35.841Z,669.00
2023-03-22T04:52:05.830Z,672.00
2023-03-22T04:52:35.836Z,673.00
2023-03-22T04:53:05.858Z,672.00
2023-03-22T04:53:35.946Z,672.00
2023-03-22T04:54:05.929Z,670.00
2023-03-22T04:54:35.938Z,672.00
2023-03-22T04:55:05.943Z,672.00
2023-03-22T04:55:35.968Z,673.00
2023-03-22T04:56:05.978Z,671.00
2023-03-22T04:56:36.017Z,672.00
2023-03-22T04:57:06.027Z,672.00
2023-03-22T04:57:36.020Z,672.00
2023-03-22T04:58:06.035Z,675.00
2023-03-22T04:58:36.039Z,677.00
2023-03-22T04:59:06.045Z,678.00
2023-03-22T04:59:36.050Z,676.00
2023-03-22T05:00:06.053Z,675.00
2023-03-22T05:00:36.058Z,675.00
2023-03-22T05:01:06.066Z,672.00
2023-03-22T05:01:36.147Z,671.00
2023-03-22T05:02:06.137Z,671.00
2023-03-22T05:02:36.183Z,672.00
2023-03-22T05:03:06.271Z,672.00
2023-03-22T05:03:36.181Z,671.00
2023-03-22T05:04:06.188Z,673.00
2023-03-22T05:04:36.204Z,672.00
2023-03-22T05:05:06.204Z,671.00
2023-03-22T05:05:36.211Z,671.00
2023-03-22T05:06:06.219Z,670.00
2023-03-22T05:06:36.247Z,670.00
2023-03-22T05:07:06.247Z,665.00
2023-03-22T05:07:36.255Z,664.00
2023-03-22T05:08:06.259Z,667.00
2023-03-22T05:08:36.265Z,670.00
2023-03-22T05:09:06.277Z,669.00
2023-03-22T05:09:36.291Z,668.00
2023-03-22T05:10:06.316Z,671.00
2023-03-22T05:10:36.301Z,673.00
2023-03-22T05:11:06.314Z,676.00
2023-03-22T05:11:36.339Z,676.00
2023-03-22T05:12:06.376Z,678.00
2023-03-22T05:12:36.443Z,680.00
2023-03-22T05:13:06.445Z,680.00
2023-03-22T05:13:36.458Z,680.00
2023-03-22T05:14:06.538Z,680.00
2023-03-22T05:14:36.637Z,683.00
2023-03-22T05:15:06.672Z,686.00
2023-03-22T05:15:36.698Z,686.00
2023-03-22T05:16:06.781Z,684.00
2023-03-22T05:16:36.822Z,686.00
2023-03-22T05:17:06.854Z,688.00
2023-03-22T05:17:36.864Z,688.00
2023-03-22T05:18:06.903Z,692.00
2023-03-22T05:18:36.877Z,694.00
2023-03-22T05:19:06.893Z,693.00
2023-03-22T05:19:36.897Z,695.00
2023-03-22T05:20:06.903Z,693.00
2023-03-22T05:20:37.223Z,694.00
2023-03-22T05:21:06.924Z,692.00
2023-03-22T05:21:37.070Z,692.00
2023-03-22T05:22:06.955Z,695.00
2023-03-22T05:22:36.969Z,695.00
2023-03-22T05:23:06.974Z,697.00
2023-03-22T05:23:36.984Z,695.00
2023-03-22T05:24:07.000Z,696.00
2023-03-22T05:24:36.993Z,696.00
2023-03-22T05:25:07.008Z,698.00
2023-03-22T05:25:37.006Z,700.00
2023-03-22T05:26:07.073Z,700.00
2023-03-22T05:26:37.113Z,703.00
2023-03-22T05:27:07.181Z,703.00
2023-03-22T05:27:37.190Z,703.00
2023-03-22T05:28:07.215Z,702.00
2023-03-22T05:28:37.200Z,702.00
2023-03-22T05:29:07.232Z,705.00
2023-03-22T05:29:37.245Z,705.00
2023-03-22T05:30:07.238Z,705.00
2023-03-22T05:30:37.341Z,704.00
2023-03-22T05:31:07.279Z,705.00
2023-03-22T05:31:37.377Z,711.00
2023-03-22T05:32:07.301Z,708.00
2023-03-22T05:32:37.306Z,710.00
2023-03-22T05:33:07.348Z,715.00
2023-03-22T05:33:37.443Z,712.00
2023-03-22T05:34:07.493Z,705.00
2023-03-22T05:34:37.588Z,705.00
2023-03-22T05:35:07.669Z,709.00
2023-03-22T05:35:37.804Z,712.00
2023-03-22T05:36:07.765Z,714.00
2023-03-22T05:36:37.851Z,714.00
2023-03-22T05:37:07.947Z,715.00
2023-03-22T05:37:38.033Z,717.00
2023-03-22T05:38:08.114Z,718.00
2023-03-22T05:38:38.200Z,716.00
2023-03-22T05:39:08.305Z,714.00
2023-03-22T05:39:38.360Z,712.00
2023-03-22T05:40:08.450Z,716.00
2023-03-22T05:40:38.867Z,721.00
2023-03-22T05:41:08.586Z,730.00
2023-03-22T05:41:38.665Z,743.00
2023-03-22T05:42:08.757Z,748.00
2023-03-22T05:42:38.841Z,750.00
2023-03-22T05:43:08.924Z,749.00
2023-03-22T05:43:38.945Z,751.00
2023-03-22T05:44:08.943Z,753.00
2023-03-22T05:44:38.947Z,754.00
2023-03-22T05:45:08.947Z,756.00
2023-03-22T05:45:38.970Z,758.00
2023-03-22T05:46:08.959Z,759.00
2023-03-22T05:46:39.019Z,757.00
2023-03-22T05:47:09.020Z,756.00
2023-03-22T05:47:39.026Z,756.00
2023-03-22T05:48:09.124Z,759.00
2023-03-22T05:48:39.096Z,763.00
2023-03-22T05:49:11.136Z,763.00
2023-03-22T05:49:39.127Z,764.00
2023-03-22T05:50:09.171Z,765.00
2023-03-22T05:50:39.413Z,768.00
2023-03-22T05:51:09.177Z,769.00
2023-03-22T05:51:39.277Z,771.00
2023-03-22T05:52:09.320Z,776.00
2023-03-22T05:52:39.319Z,780.00
2023-03-22T05:53:09.326Z,782.00
2023-03-22T05:53:39.357Z,784.00
2023-03-22T05:54:09.373Z,788.00
2023-03-22T05:54:39.398Z,785.00
2023-03-22T05:55:09.389Z,786.00
2023-03-22T05:55:39.383Z,787.00
2023-03-22T05:56:09.387Z,788.00
2023-03-22T05:56:39.394Z,788.00
2023-03-22T05:57:09.437Z,785.00
2023-03-22T05:57:39.431Z,788.00
2023-03-22T05:58:09.443Z,792.00
2023-03-22T05:58:39.438Z,793.00
2023-03-22T05:59:09.462Z,794.00
2023-03-22T05:59:39.468Z,798.00
2023-03-22T06:00:09.485Z,797.00
2023-03-22T06:00:39.720Z,797.00
2023-03-22T06:01:09.515Z,799.00
2023-03-22T06:01:39.602Z,799.00
2023-03-22T06:02:09.654Z,798.00
2023-03-22T06:02:39.584Z,797.00
2023-03-22T06:03:09.654Z,796.00
2023-03-22T06:03:39.688Z,795.00
2023-03-22T06:04:09.743Z,796.00
2023-03-22T06:04:39.786Z,793.00
2023-03-22T06:05:09.787Z,791.00
2023-03-22T06:05:39.797Z,791.00
2023-03-22T06:06:09.818Z,789.00
2023-03-22T06:06:39.813Z,788.00
2023-03-22T06:07:09.837Z,788.00
2023-03-22T06:07:39.842Z,786.00
2023-03-22T06:08:09.842Z,786.00
2023-03-22T06:08:39.890Z,786.00
2023-03-22T06:09:16.896Z,786.00
2023-03-22T06:09:39.987Z,787.00
2023-03-22T06:10:09.987Z,783.00
2023-03-22T06:10:40.264Z,784.00
2023-03-22T06:11:10.046Z,781.00
2023-03-22T06:11:40.038Z,781.00
2023-03-22T06:12:10.060Z,782.00
2023-03-22T06:12:40.062Z,783.00
2023-03-22T06:13:10.082Z,782.00
2023-03-22T06:13:40.084Z,784.00
2023-03-22T06:14:10.083Z,787.00
2023-03-22T06:14:40.103Z,790.00